This is the latest recevied weather packets stored in our database for station/object HG8PDN-11. If no packets are shown the sender has not sent any weather packets the latest 10 day(s).
| Time | Temp. | Humidity | Pressure | Rain* | Wind** | Luminosity | Snow |
|---|---|---|---|---|---|---|---|
| 1777601619 | 24.44° C | 13% | 1025.8 hPa | - | - | - | - |
| 1777600712 | 24.44° C | 13% | 1025.8 hPa | - | - | - | - |
| 1777585369 | 25° C | 12% | 1026 hPa | - | - | - | - |
| 1777584469 | 25.56° C | 12% | 1025.9 hPa | - | - | - | - |
| 1777579967 | 25.56° C | 12% | 1025.7 hPa | - | - | - | - |
| 1777578183 | 25.56° C | 12% | 1025.7 hPa | - | - | - | - |
| 1777577394 | 26.11° C | 12% | 1025.5 hPa | - | - | - | - |
| 1777576366 | 26.11° C | 11% | 1025.5 hPa | - | - | - | - |
| 1777575466 | 26.67° C | 11% | 1025.5 hPa | - | - | - | - |
| 1777566463 | 27.78° C | 10% | 1024.4 hPa | - | - | - | - |
| 1777563794 | 28.89° C | 10% | 1024.2 hPa | - | - | - | - |
| 1777557492 | 28.89° C | 10% | 1024.4 hPa | - | - | - | - |
| 1777554927 | 28.89° C | 10% | 1024.7 hPa | - | - | - | - |
| 1777554892 | 28.89° C | 10% | 1024.7 hPa | - | - | - | - |
| 1777554760 | 28.89° C | 10% | 1024.7 hPa | - | - | - | - |
| 1777553860 | 28.89° C | 10% | 1024.7 hPa | - | - | - | - |
| 1777552094 | 29.44° C | 10% | 1024.9 hPa | - | - | - | - |
| 1777552059 | 29.44° C | 10% | 1024.9 hPa | - | - | - | - |
| 1777551158 | 28.89° C | 10% | 1025.1 hPa | - | - | - | - |
| 1777546657 | 27.22° C | 11% | 1025.5 hPa | - | - | - | - |
| 1777544855 | 26.67° C | 12% | 1025.7 hPa | - | - | - | - |
| 1777544004 | 26.67° C | 13% | 1025.8 hPa | - | - | - | - |
| 1777543955 | 26.67° C | 13% | 1025.8 hPa | - | - | - | - |
| 1777543055 | 26.67° C | 13% | 1025.9 hPa | - | - | - | - |
| 1777541286 | 26.11° C | 13% | 1026.2 hPa | - | - | - | - |
* Rain since midnight (hover to see other rain measurements)
** Current wind speed in m/s (hover to see current wind gust speed)